sensor_id;sensor_type;location;lat;lon;timestamp;temperature;humidity
25914;DHT22;13718;50.922;5.346;2023-06-01T00:02:14;17.60;99.90
25914;DHT22;13718;50.922;5.346;2023-06-01T00:04:40;17.60;99.90
25914;DHT22;13718;50.922;5.346;2023-06-01T00:07:07;17.60;99.90
25914;DHT22;13718;50.922;5.346;2023-06-01T00:09:32;17.60;99.90
25914;DHT22;13718;50.922;5.346;2023-06-01T00:11:58;17.50;99.90
25914;DHT22;13718;50.922;5.346;2023-06-01T00:14:24;17.40;99.90
25914;DHT22;13718;50.922;5.346;2023-06-01T00:16:49;17.30;99.90
25914;DHT22;13718;50.922;5.346;2023-06-01T00:19:17;17.20;99.90
25914;DHT22;13718;50.922;5.346;2023-06-01T00:21:43;17.20;99.90
25914;DHT22;13718;50.922;5.346;2023-06-01T00:24:08;17.10;99.90
25914;DHT22;13718;50.922;5.346;2023-06-01T00:26:34;17.10;99.90
25914;DHT22;13718;50.922;5.346;2023-06-01T00:29:00;17.10;99.90
25914;DHT22;13718;50.922;5.346;2023-06-01T00:31:26;17.00;99.90
25914;DHT22;13718;50.922;5.346;2023-06-01T00:33:52;16.90;99.90
25914;DHT22;13718;50.922;5.346;2023-06-01T00:36:18;17.00;99.90
25914;DHT22;13718;50.922;5.346;2023-06-01T00:38:44;16.90;99.90
25914;DHT22;13718;50.922;5.346;2023-06-01T00:41:10;16.90;99.90
25914;DHT22;13718;50.922;5.346;2023-06-01T00:43:35;16.90;99.90
25914;DHT22;13718;50.922;5.346;2023-06-01T00:46:01;16.80;99.90
25914;DHT22;13718;50.922;5.346;2023-06-01T00:48:27;16.70;99.90
25914;DHT22;13718;50.922;5.346;2023-06-01T00:50:53;16.60;99.90
25914;DHT22;13718;50.922;5.346;2023-06-01T00:53:20;16.60;99.90
25914;DHT22;13718;50.922;5.346;2023-06-01T00:55:46;16.60;99.90
25914;DHT22;13718;50.922;5.346;2023-06-01T00:58:12;16.50;99.90
25914;DHT22;13718;50.922;5.346;2023-06-01T01:00:38;16.50;99.90
25914;DHT22;13718;50.922;5.346;2023-06-01T01:03:05;16.40;99.90
25914;DHT22;13718;50.922;5.346;2023-06-01T01:05:33;16.40;99.90
25914;DHT22;13718;50.922;5.346;2023-06-01T01:08:26;16.30;99.90
25914;DHT22;13718;50.922;5.346;2023-06-01T01:11:04;16.30;99.90
25914;DHT22;13718;50.922;5.346;2023-06-01T01:13:43;16.40;99.90
25914;DHT22;13718;50.922;5.346;2023-06-01T01:16:23;16.40;99.90
25914;DHT22;13718;50.922;5.346;2023-06-01T01:18:54;16.30;99.90
25914;DHT22;13718;50.922;5.346;2023-06-01T01:21:28;16.20;99.90
25914;DHT22;13718;50.922;5.346;2023-06-01T01:27:13;16.00;99.90
25914;DHT22;13718;50.922;5.346;2023-06-01T01:29:40;15.80;99.90
25914;DHT22;13718;50.922;5.346;2023-06-01T01:32:08;15.80;99.90
25914;DHT22;13718;50.922;5.346;2023-06-01T01:34:34;15.70;99.90
25914;DHT22;13718;50.922;5.346;2023-06-01T01:37:00;15.70;99.90
25914;DHT22;13718;50.922;5.346;2023-06-01T01:39:26;15.70;99.90
25914;DHT22;13718;50.922;5.346;2023-06-01T01:41:52;15.60;99.90
25914;DHT22;13718;50.922;5.346;2023-06-01T01:44:17;15.70;99.90
25914;DHT22;13718;50.922;5.346;2023-06-01T01:47:05;15.60;99.90
25914;DHT22;13718;50.922;5.346;2023-06-01T01:49:41;15.50;99.90
25914;DHT22;13718;50.922;5.346;2023-06-01T01:52:12;15.50;99.90
25914;DHT22;13718;50.922;5.346;2023-06-01T01:54:43;15.40;99.90
25914;DHT22;13718;50.922;5.346;2023-06-01T01:57:09;15.40;99.90
25914;DHT22;13718;50.922;5.346;2023-06-01T01:59:37;15.40;99.90
25914;DHT22;13718;50.922;5.346;2023-06-01T02:02:03;15.30;99.90
25914;DHT22;13718;50.922;5.346;2023-06-01T02:04:29;15.30;99.90
25914;DHT22;13718;50.922;5.346;2023-06-01T02:06:54;15.20;99.90
25914;DHT22;13718;50.922;5.346;2023-06-01T02:09:20;15.10;99.90
25914;DHT22;13718;50.922;5.346;2023-06-01T02:11:45;15.10;99.90
25914;DHT22;13718;50.922;5.346;2023-06-01T02:14:11;14.90;99.90
25914;DHT22;13718;50.922;5.346;2023-06-01T02:16:37;14.90;99.90
25914;DHT22;13718;50.922;5.346;2023-06-01T02:19:03;14.90;99.90
25914;DHT22;13718;50.922;5.346;2023-06-01T02:21:29;14.80;99.90
25914;DHT22;13718;50.922;5.346;2023-06-01T02:23:54;14.80;99.90
25914;DHT22;13718;50.922;5.346;2023-06-01T02:26:20;14.70;99.90
25914;DHT22;13718;50.922;5.346;2023-06-01T02:28:49;14.70;99.90
25914;DHT22;13718;50.922;5.346;2023-06-01T02:31:15;14.60;99.90
25914;DHT22;13718;50.922;5.346;2023-06-01T02:33:40;14.50;99.90
25914;DHT22;13718;50.922;5.346;2023-06-01T02:36:06;14.50;99.90
25914;DHT22;13718;50.922;5.346;2023-06-01T02:38:32;14.40;99.90
25914;DHT22;13718;50.922;5.346;2023-06-01T02:40:57;14.30;99.90
25914;DHT22;13718;50.922;5.346;2023-06-01T02:43:23;14.30;99.90
25914;DHT22;13718;50.922;5.346;2023-06-01T02:45:48;14.30;99.90
25914;DHT22;13718;50.922;5.346;2023-06-01T02:48:14;14.30;99.90
25914;DHT22;13718;50.922;5.346;2023-06-01T02:50:40;14.40;99.90
25914;DHT22;13718;50.922;5.346;2023-06-01T02:53:05;14.30;99.90
25914;DHT22;13718;50.922;5.346;2023-06-01T02:55:31;14.20;99.90
25914;DHT22;13718;50.922;5.346;2023-06-01T02:57:57;14.20;99.90
25914;DHT22;13718;50.922;5.346;2023-06-01T03:00:22;14.00;99.90
25914;DHT22;13718;50.922;5.346;2023-06-01T03:02:48;14.00;99.90
25914;DHT22;13718;50.922;5.346;2023-06-01T03:05:15;14.00;99.90
25914;DHT22;13718;50.922;5.346;2023-06-01T03:07:43;14.00;99.90
25914;DHT22;13718;50.922;5.346;2023-06-01T03:10:08;14.10;99.90
25914;DHT22;13718;50.922;5.346;2023-06-01T03:12:34;14.00;99.90
25914;DHT22;13718;50.922;5.346;2023-06-01T03:15:00;13.90;99.90
25914;DHT22;13718;50.922;5.346;2023-06-01T03:17:26;13.90;99.90
25914;DHT22;13718;50.922;5.346;2023-06-01T03:19:51;13.80;99.90
25914;DHT22;13718;50.922;5.346;2023-06-01T03:22:17;14.00;99.90
25914;DHT22;13718;50.922;5.346;2023-06-01T03:24:43;13.90;99.90
25914;DHT22;13718;50.922;5.346;2023-06-01T03:27:09;13.90;99.90
25914;DHT22;13718;50.922;5.346;2023-06-01T03:29:36;13.80;99.90
25914;DHT22;13718;50.922;5.346;2023-06-01T03:32:02;13.80;99.90
25914;DHT22;13718;50.922;5.346;2023-06-01T03:34:28;13.70;99.90
25914;DHT22;13718;50.922;5.346;2023-06-01T03:36:54;13.70;99.90
25914;DHT22;13718;50.922;5.346;2023-06-01T03:39:20;13.90;99.90
25914;DHT22;13718;50.922;5.346;2023-06-01T03:41:46;14.00;99.90
25914;DHT22;13718;50.922;5.346;2023-06-01T03:44:11;13.80;99.90
25914;DHT22;13718;50.922;5.346;2023-06-01T03:46:38;13.80;99.90
25914;DHT22;13718;50.922;5.346;2023-06-01T03:49:04;13.60;99.90
25914;DHT22;13718;50.922;5.346;2023-06-01T03:51:30;13.60;99.90
25914;DHT22;13718;50.922;5.346;2023-06-01T03:53:56;13.90;99.90
25914;DHT22;13718;50.922;5.346;2023-06-01T03:56:21;13.80;99.90
25914;DHT22;13718;50.922;5.346;2023-06-01T03:58:48;13.60;99.90
25914;DHT22;13718;50.922;5.346;2023-06-01T04:01:13;13.50;99.90
25914;DHT22;13718;50.922;5.346;2023-06-01T04:03:42;13.40;99.90
25914;DHT22;13718;50.922;5.346;2023-06-01T04:06:09;13.40;99.90
25914;DHT22;13718;50.922;5.346;2023-06-01T04:08:38;13.40;99.90
25914;DHT22;13718;50.922;5.346;2023-06-01T04:11:13;13.30;99.90
25914;DHT22;13718;50.922;5.346;2023-06-01T04:13:38;13.30;99.90
25914;DHT22;13718;50.922;5.346;2023-06-01T04:16:04;13.30;99.90
25914;DHT22;13718;50.922;5.346;2023-06-01T04:18:30;13.30;99.90
25914;DHT22;13718;50.922;5.346;2023-06-01T04:20:56;13.40;99.90
25914;DHT22;13718;50.922;5.346;2023-06-01T04:23:22;13.40;99.90
25914;DHT22;13718;50.922;5.346;2023-06-01T04:25:48;13.40;99.90
25914;DHT22;13718;50.922;5.346;2023-06-01T04:28:16;13.50;99.90
25914;DHT22;13718;50.922;5.346;2023-06-01T04:30:43;13.40;99.90
25914;DHT22;13718;50.922;5.346;2023-06-01T04:33:10;13.40;99.90
25914;DHT22;13718;50.922;5.346;2023-06-01T04:35:36;13.40;99.90
25914;DHT22;13718;50.922;5.346;2023-06-01T04:38:02;13.50;99.90
25914;DHT22;13718;50.922;5.346;2023-06-01T04:40:28;13.40;99.90
25914;DHT22;13718;50.922;5.346;2023-06-01T04:42:54;13.40;99.90
25914;DHT22;13718;50.922;5.346;2023-06-01T04:45:24;13.50;99.90
25914;DHT22;13718;50.922;5.346;2023-06-01T04:47:51;13.70;99.90
25914;DHT22;13718;50.922;5.346;2023-06-01T04:50:17;13.70;99.90
25914;DHT22;13718;50.922;5.346;2023-06-01T04:52:43;13.80;99.90
25914;DHT22;13718;50.922;5.346;2023-06-01T04:55:10;14.00;99.90
25914;DHT22;13718;50.922;5.346;2023-06-01T04:57:38;13.90;99.90
25914;DHT22;13718;50.922;5.346;2023-06-01T05:00:05;13.90;99.90
25914;DHT22;13718;50.922;5.346;2023-06-01T05:02:36;13.80;99.90
25914;DHT22;13718;50.922;5.346;2023-06-01T05:05:03;13.70;99.90
25914;DHT22;13718;50.922;5.346;2023-06-01T05:07:29;13.80;99.90
25914;DHT22;13718;50.922;5.346;2023-06-01T05:09:55;14.00;99.90
25914;DHT22;13718;50.922;5.346;2023-06-01T05:12:21;14.00;99.90
25914;DHT22;13718;50.922;5.346;2023-06-01T05:14:47;14.00;99.90
25914;DHT22;13718;50.922;5.346;2023-06-01T05:17:12;14.00;99.90
25914;DHT22;13718;50.922;5.346;2023-06-01T05:19:38;13.80;99.90
25914;DHT22;13718;50.922;5.346;2023-06-01T05:22:04;13.80;99.90
25914;DHT22;13718;50.922;5.346;2023-06-01T05:24:30;13.80;99.90
25914;DHT22;13718;50.922;5.346;2023-06-01T05:26:55;13.60;99.90
25914;DHT22;13718;50.922;5.346;2023-06-01T05:29:21;13.50;99.90
25914;DHT22;13718;50.922;5.346;2023-06-01T05:31:48;13.50;99.90
25914;DHT22;13718;50.922;5.346;2023-06-01T05:34:14;13.70;99.90
25914;DHT22;13718;50.922;5.346;2023-06-01T05:36:40;13.70;99.90
25914;DHT22;13718;50.922;5.346;2023-06-01T05:39:06;13.70;99.90
25914;DHT22;13718;50.922;5.346;2023-06-01T05:41:31;13.90;99.90
25914;DHT22;13718;50.922;5.346;2023-06-01T05:43:57;14.00;99.90
25914;DHT22;13718;50.922;5.346;2023-06-01T05:46:23;14.10;99.90
25914;DHT22;13718;50.922;5.346;2023-06-01T05:48:50;14.20;99.90
25914;DHT22;13718;50.922;5.346;2023-06-01T05:51:16;14.20;99.90
25914;DHT22;13718;50.922;5.346;2023-06-01T05:53:42;14.20;99.90
25914;DHT22;13718;50.922;5.346;2023-06-01T05:56:08;14.20;99.90
25914;DHT22;13718;50.922;5.346;2023-06-01T05:58:33;14.40;99.90
25914;DHT22;13718;50.922;5.346;2023-06-01T06:00:59;14.40;99.90
25914;DHT22;13718;50.922;5.346;2023-06-01T06:03:25;14.50;99.90
25914;DHT22;13718;50.922;5.346;2023-06-01T06:05:50;14.50;99.90
25914;DHT22;13718;50.922;5.346;2023-06-01T06:08:16;14.70;99.90
25914;DHT22;13718;50.922;5.346;2023-06-01T06:10:42;14.90;99.90
25914;DHT22;13718;50.922;5.346;2023-06-01T06:13:07;15.20;99.90
25914;DHT22;13718;50.922;5.346;2023-06-01T06:15:33;15.10;99.90
25914;DHT22;13718;50.922;5.346;2023-06-01T06:17:59;14.90;99.90
25914;DHT22;13718;50.922;5.346;2023-06-01T06:20:24;14.80;99.90
25914;DHT22;13718;50.922;5.346;2023-06-01T06:22:53;14.70;99.90
25914;DHT22;13718;50.922;5.346;2023-06-01T06:25:19;14.90;99.90
25914;DHT22;13718;50.922;5.346;2023-06-01T06:27:45;15.30;99.90
25914;DHT22;13718;50.922;5.346;2023-06-01T06:30:12;15.60;99.90
25914;DHT22;13718;50.922;5.346;2023-06-01T06:32:37;15.80;99.90
25914;DHT22;13718;50.922;5.346;2023-06-01T06:35:03;15.80;99.90
25914;DHT22;13718;50.922;5.346;2023-06-01T06:37:29;15.90;99.90
25914;DHT22;13718;50.922;5.346;2023-06-01T06:39:55;16.10;99.90
25914;DHT22;13718;50.922;5.346;2023-06-01T06:42:22;16.30;99.90
25914;DHT22;13718;50.922;5.346;2023-06-01T06:44:48;16.40;99.90
25914;DHT22;13718;50.922;5.346;2023-06-01T06:47:14;16.10;99.90
25914;DHT22;13718;50.922;5.346;2023-06-01T06:49:44;16.00;99.90
25914;DHT22;13718;50.922;5.346;2023-06-01T06:52:09;15.70;99.90
25914;DHT22;13718;50.922;5.346;2023-06-01T06:54:38;15.90;99.90
25914;DHT22;13718;50.922;5.346;2023-06-01T06:57:03;16.20;99.90
25914;DHT22;13718;50.922;5.346;2023-06-01T06:59:29;16.50;99.90
25914;DHT22;13718;50.922;5.346;2023-06-01T07:01:55;17.00;99.90
25914;DHT22;13718;50.922;5.346;2023-06-01T07:04:22;17.70;99.90
25914;DHT22;13718;50.922;5.346;2023-06-01T07:06:47;18.00;99.90
25914;DHT22;13718;50.922;5.346;2023-06-01T07:09:13;18.30;99.90
25914;DHT22;13718;50.922;5.346;2023-06-01T07:11:41;18.40;99.90
25914;DHT22;13718;50.922;5.346;2023-06-01T07:14:08;18.40;99.90
25914;DHT22;13718;50.922;5.346;2023-06-01T07:16:33;18.30;99.90
25914;DHT22;13718;50.922;5.346;2023-06-01T07:18:59;18.30;99.90
25914;DHT22;13718;50.922;5.346;2023-06-01T07:21:25;18.20;99.90
25914;DHT22;13718;50.922;5.346;2023-06-01T07:23:51;18.40;99.90
25914;DHT22;13718;50.922;5.346;2023-06-01T07:26:17;18.70;99.90
25914;DHT22;13718;50.922;5.346;2023-06-01T07:28:43;19.10;99.90
25914;DHT22;13718;50.922;5.346;2023-06-01T07:31:09;19.30;99.90
25914;DHT22;13718;50.922;5.346;2023-06-01T07:33:35;19.90;99.90
25914;DHT22;13718;50.922;5.346;2023-06-01T07:36:05;20.10;99.60
25914;DHT22;13718;50.922;5.346;2023-06-01T07:38:31;20.60;98.50
25914;DHT22;13718;50.922;5.346;2023-06-01T07:40:58;20.80;97.70
25914;DHT22;13718;50.922;5.346;2023-06-01T07:43:24;21.40;96.90
25914;DHT22;13718;50.922;5.346;2023-06-01T07:45:49;22.40;95.50
25914;DHT22;13718;50.922;5.346;2023-06-01T07:48:15;22.20;94.00
25914;DHT22;13718;50.922;5.346;2023-06-01T07:50:41;21.70;94.30
25914;DHT22;13718;50.922;5.346;2023-06-01T07:53:07;21.70;94.30
25914;DHT22;13718;50.922;5.346;2023-06-01T07:55:33;22.20;93.90
25914;DHT22;13718;50.922;5.346;2023-06-01T07:57:58;22.90;92.40
25914;DHT22;13718;50.922;5.346;2023-06-01T08:00:24;23.20;91.70
25914;DHT22;13718;50.922;5.346;2023-06-01T08:02:51;24.50;90.70
25914;DHT22;13718;50.922;5.346;2023-06-01T08:05:18;26.20;85.40
25914;DHT22;13718;50.922;5.346;2023-06-01T08:07:44;27.70;80.20
25914;DHT22;13718;50.922;5.346;2023-06-01T08:10:12;28.60;74.80
25914;DHT22;13718;50.922;5.346;2023-06-01T08:12:39;29.00;72.60
25914;DHT22;13718;50.922;5.346;2023-06-01T08:15:05;29.40;70.60
25914;DHT22;13718;50.922;5.346;2023-06-01T08:17:31;29.40;67.10
25914;DHT22;13718;50.922;5.346;2023-06-01T08:19:56;29.50;67.30
25914;DHT22;13718;50.922;5.346;2023-06-01T08:22:22;30.00;66.30
25914;DHT22;13718;50.922;5.346;2023-06-01T08:24:49;30.60;63.30
25914;DHT22;13718;50.922;5.346;2023-06-01T08:27:21;30.80;61.90
25914;DHT22;13718;50.922;5.346;2023-06-01T08:29:49;30.50;60.50
25914;DHT22;13718;50.922;5.346;2023-06-01T08:32:16;30.50;61.40
25914;DHT22;13718;50.922;5.346;2023-06-01T08:34:44;31.20;61.20
25914;DHT22;13718;50.922;5.346;2023-06-01T08:37:11;31.60;59.40
25914;DHT22;13718;50.922;5.346;2023-06-01T08:39:38;31.80;58.40
25914;DHT22;13718;50.922;5.346;2023-06-01T08:42:06;31.30;57.90
25914;DHT22;13718;50.922;5.346;2023-06-01T08:44:37;31.80;57.20
25914;DHT22;13718;50.922;5.346;2023-06-01T08:47:04;32.30;56.60
25914;DHT22;13718;50.922;5.346;2023-06-01T08:49:35;32.70;56.10
25914;DHT22;13718;50.922;5.346;2023-06-01T08:52:04;33.10;54.90
25914;DHT22;13718;50.922;5.346;2023-06-01T08:54:33;32.70;55.20
25914;DHT22;13718;50.922;5.346;2023-06-01T08:57:04;32.80;54.60
25914;DHT22;13718;50.922;5.346;2023-06-01T08:59:32;33.40;54.20
25914;DHT22;13718;50.922;5.346;2023-06-01T09:01:59;33.30;53.20
25914;DHT22;13718;50.922;5.346;2023-06-01T09:04:26;33.30;54.00
25914;DHT22;13718;50.922;5.346;2023-06-01T09:06:51;33.80;52.80
25914;DHT22;13718;50.922;5.346;2023-06-01T09:09:17;33.80;51.90
25914;DHT22;13718;50.922;5.346;2023-06-01T09:11:43;33.90;52.30
25914;DHT22;13718;50.922;5.346;2023-06-01T09:14:23;34.00;51.10
25914;DHT22;13718;50.922;5.346;2023-06-01T09:16:49;34.10;50.70
25914;DHT22;13718;50.922;5.346;2023-06-01T09:19:15;33.80;50.90
25914;DHT22;13718;50.922;5.346;2023-06-01T09:21:59;34.10;50.70
25914;DHT22;13718;50.922;5.346;2023-06-01T09:24:25;34.60;50.20
25914;DHT22;13718;50.922;5.346;2023-06-01T09:26:57;34.50;49.40
25914;DHT22;13718;50.922;5.346;2023-06-01T09:29:24;34.50;49.60
25914;DHT22;13718;50.922;5.346;2023-06-01T09:31:49;34.50;49.30
25914;DHT22;13718;50.922;5.346;2023-06-01T09:34:17;34.50;49.50
25914;DHT22;13718;50.922;5.346;2023-06-01T09:36:51;34.20;48.60
25914;DHT22;13718;50.922;5.346;2023-06-01T09:39:18;33.60;49.00
25914;DHT22;13718;50.922;5.346;2023-06-01T09:44:10;32.10;51.30
25914;DHT22;13718;50.922;5.346;2023-06-01T09:46:49;30.10;53.30
25914;DHT22;13718;50.922;5.346;2023-06-01T09:49:26;28.40;56.60
25914;DHT22;13718;50.922;5.346;2023-06-01T09:51:55;27.10;59.00
25914;DHT22;13718;50.922;5.346;2023-06-01T09:54:33;26.20;60.80
25914;DHT22;13718;50.922;5.346;2023-06-01T09:57:01;25.40;62.80
25914;DHT22;13718;50.922;5.346;2023-06-01T09:59:28;24.80;65.30
25914;DHT22;13718;50.922;5.346;2023-06-01T10:01:57;24.50;65.50
25914;DHT22;13718;50.922;5.346;2023-06-01T10:04:25;24.40;66.90
25914;DHT22;13718;50.922;5.346;2023-06-01T10:06:53;24.20;66.70
25914;DHT22;13718;50.922;5.346;2023-06-01T10:09:21;23.90;66.70
25914;DHT22;13718;50.922;5.346;2023-06-01T10:11:47;23.70;67.60
25914;DHT22;13718;50.922;5.346;2023-06-01T10:14:14;23.50;67.50
25914;DHT22;13718;50.922;5.346;2023-06-01T10:16:41;23.40;68.20
25914;DHT22;13718;50.922;5.346;2023-06-01T10:19:10;23.50;68.00
25914;DHT22;13718;50.922;5.346;2023-06-01T10:21:37;23.40;68.40
25914;DHT22;13718;50.922;5.346;2023-06-01T10:24:03;23.40;68.50
25914;DHT22;13718;50.922;5.346;2023-06-01T10:26:32;23.30;68.60
25914;DHT22;13718;50.922;5.346;2023-06-01T10:29:00;23.20;69.30
25914;DHT22;13718;50.922;5.346;2023-06-01T10:31:42;23.20;69.00
25914;DHT22;13718;50.922;5.346;2023-06-01T10:34:12;23.30;66.80
25914;DHT22;13718;50.922;5.346;2023-06-01T10:41:48;23.20;67.80
25914;DHT22;13718;50.922;5.346;2023-06-01T10:47:05;23.00;67.80
25914;DHT22;13718;50.922;5.346;2023-06-01T10:55:28;22.70;67.90
25914;DHT22;13718;50.922;5.346;2023-06-01T10:58:19;22.70;69.00
25914;DHT22;13718;50.922;5.346;2023-06-01T11:00:46;22.90;69.30
25914;DHT22;13718;50.922;5.346;2023-06-01T11:03:11;23.00;69.50
25914;DHT22;13718;50.922;5.346;2023-06-01T11:10:59;23.10;68.70
25914;DHT22;13718;50.922;5.346;2023-06-01T11:13:32;22.90;68.50
25914;DHT22;13718;50.922;5.346;2023-06-01T11:18:47;22.40;70.40
25914;DHT22;13718;50.922;5.346;2023-06-01T11:21:30;22.50;72.30
25914;DHT22;13718;50.922;5.346;2023-06-01T11:23:58;22.60;70.90
25914;DHT22;13718;50.922;5.346;2023-06-01T11:26:32;22.60;70.90
25914;DHT22;13718;50.922;5.346;2023-06-01T11:29:07;22.70;71.20
25914;DHT22;13718;50.922;5.346;2023-06-01T11:31:41;22.70;70.80
25914;DHT22;13718;50.922;5.346;2023-06-01T11:34:08;22.80;70.30
25914;DHT22;13718;50.922;5.346;2023-06-01T11:36:42;22.80;71.30
25914;DHT22;13718;50.922;5.346;2023-06-01T11:41:48;23.00;70.00
25914;DHT22;13718;50.922;5.346;2023-06-01T11:44:14;22.90;70.80
25914;DHT22;13718;50.922;5.346;2023-06-01T11:46:54;23.00;70.80
25914;DHT22;13718;50.922;5.346;2023-06-01T11:49:20;23.30;69.60
25914;DHT22;13718;50.922;5.346;2023-06-01T11:51:47;23.10;68.70
25914;DHT22;13718;50.922;5.346;2023-06-01T11:54:12;22.80;70.90
25914;DHT22;13718;50.922;5.346;2023-06-01T11:56:38;22.80;69.50
25914;DHT22;13718;50.922;5.346;2023-06-01T11:59:08;22.90;69.00
25914;DHT22;13718;50.922;5.346;2023-06-01T12:01:45;23.00;68.80
25914;DHT22;13718;50.922;5.346;2023-06-01T12:04:18;22.90;68.70
25914;DHT22;13718;50.922;5.346;2023-06-01T12:06:44;23.10;69.80
25914;DHT22;13718;50.922;5.346;2023-06-01T12:09:13;23.10;69.70
25914;DHT22;13718;50.922;5.346;2023-06-01T12:11:40;23.30;69.80
25914;DHT22;13718;50.922;5.346;2023-06-01T12:14:08;23.50;68.20
25914;DHT22;13718;50.922;5.346;2023-06-01T12:16:55;23.40;66.40
25914;DHT22;13718;50.922;5.346;2023-06-01T12:19:22;23.30;66.80
25914;DHT22;13718;50.922;5.346;2023-06-01T12:21:50;23.20;67.30
25914;DHT22;13718;50.922;5.346;2023-06-01T12:24:17;23.40;67.30
25914;DHT22;13718;50.922;5.346;2023-06-01T12:26:43;23.30;66.30
25914;DHT22;13718;50.922;5.346;2023-06-01T12:29:08;23.20;67.40
25914;DHT22;13718;50.922;5.346;2023-06-01T12:31:34;23.30;67.80
25914;DHT22;13718;50.922;5.346;2023-06-01T12:34:00;23.30;68.10
25914;DHT22;13718;50.922;5.346;2023-06-01T12:36:29;23.20;68.40
25914;DHT22;13718;50.922;5.346;2023-06-01T12:38:59;23.20;67.80
25914;DHT22;13718;50.922;5.346;2023-06-01T12:41:25;23.10;66.50
25914;DHT22;13718;50.922;5.346;2023-06-01T12:43:51;23.10;67.20
25914;DHT22;13718;50.922;5.346;2023-06-01T12:46:21;23.20;66.40
25914;DHT22;13718;50.922;5.346;2023-06-01T12:48:48;23.20;66.20
25914;DHT22;13718;50.922;5.346;2023-06-01T12:51:14;23.30;66.00
25914;DHT22;13718;50.922;5.346;2023-06-01T12:53:40;23.20;66.40
25914;DHT22;13718;50.922;5.346;2023-06-01T12:56:07;23.20;66.10
25914;DHT22;13718;50.922;5.346;2023-06-01T12:58:33;23.20;65.90
25914;DHT22;13718;50.922;5.346;2023-06-01T13:00:59;23.20;65.90
25914;DHT22;13718;50.922;5.346;2023-06-01T13:03:24;23.30;66.50
25914;DHT22;13718;50.922;5.346;2023-06-01T13:05:50;23.60;66.20
25914;DHT22;13718;50.922;5.346;2023-06-01T13:08:16;24.00;66.10
25914;DHT22;13718;50.922;5.346;2023-06-01T13:10:42;24.00;66.20
25914;DHT22;13718;50.922;5.346;2023-06-01T13:13:08;23.70;65.50
25914;DHT22;13718;50.922;5.346;2023-06-01T13:15:34;23.90;65.30
25914;DHT22;13718;50.922;5.346;2023-06-01T13:18:01;23.60;67.20
25914;DHT22;13718;50.922;5.346;2023-06-01T13:20:27;23.60;66.90
25914;DHT22;13718;50.922;5.346;2023-06-01T13:22:52;23.50;66.50
25914;DHT22;13718;50.922;5.346;2023-06-01T13:25:18;23.60;66.80
25914;DHT22;13718;50.922;5.346;2023-06-01T13:27:45;23.50;66.30
25914;DHT22;13718;50.922;5.346;2023-06-01T13:30:11;23.70;64.90
25914;DHT22;13718;50.922;5.346;2023-06-01T13:32:37;23.80;65.60
25914;DHT22;13718;50.922;5.346;2023-06-01T13:35:03;24.00;65.50
25914;DHT22;13718;50.922;5.346;2023-06-01T13:37:29;23.90;66.90
25914;DHT22;13718;50.922;5.346;2023-06-01T13:39:55;23.80;65.80
25914;DHT22;13718;50.922;5.346;2023-06-01T13:42:20;23.70;66.90
25914;DHT22;13718;50.922;5.346;2023-06-01T13:44:46;23.60;65.00
25914;DHT22;13718;50.922;5.346;2023-06-01T13:47:13;23.60;63.90
25914;DHT22;13718;50.922;5.346;2023-06-01T13:49:45;23.50;65.40
25914;DHT22;13718;50.922;5.346;2023-06-01T13:52:10;23.50;64.40
25914;DHT22;13718;50.922;5.346;2023-06-01T13:54:37;23.30;65.10
25914;DHT22;13718;50.922;5.346;2023-06-01T13:57:02;23.30;65.00
25914;DHT22;13718;50.922;5.346;2023-06-01T13:59:28;23.30;63.50
25914;DHT22;13718;50.922;5.346;2023-06-01T14:01:59;23.20;65.50
25914;DHT22;13718;50.922;5.346;2023-06-01T14:04:24;23.20;65.30
25914;DHT22;13718;50.922;5.346;2023-06-01T14:06:50;23.30;63.30
25914;DHT22;13718;50.922;5.346;2023-06-01T14:09:19;23.10;65.10
25914;DHT22;13718;50.922;5.346;2023-06-01T14:11:44;23.20;66.60
25914;DHT22;13718;50.922;5.346;2023-06-01T14:14:10;23.30;64.20
25914;DHT22;13718;50.922;5.346;2023-06-01T14:16:36;23.40;66.10
25914;DHT22;13718;50.922;5.346;2023-06-01T14:19:01;23.50;64.20
25914;DHT22;13718;50.922;5.346;2023-06-01T14:21:28;23.50;65.40
25914;DHT22;13718;50.922;5.346;2023-06-01T14:23:56;23.50;64.30
25914;DHT22;13718;50.922;5.346;2023-06-01T14:26:21;23.60;64.00
25914;DHT22;13718;50.922;5.346;2023-06-01T14:28:47;23.60;64.70
25914;DHT22;13718;50.922;5.346;2023-06-01T14:31:13;23.50;65.60
25914;DHT22;13718;50.922;5.346;2023-06-01T14:33:38;23.50;65.70
25914;DHT22;13718;50.922;5.346;2023-06-01T14:36:04;23.50;66.40
25914;DHT22;13718;50.922;5.346;2023-06-01T14:38:30;23.50;65.00
25914;DHT22;13718;50.922;5.346;2023-06-01T14:40:56;23.50;65.80
25914;DHT22;13718;50.922;5.346;2023-06-01T14:43:22;23.60;65.00
25914;DHT22;13718;50.922;5.346;2023-06-01T14:45:47;23.70;65.30
25914;DHT22;13718;50.922;5.346;2023-06-01T14:48:13;23.80;65.50
25914;DHT22;13718;50.922;5.346;2023-06-01T14:50:39;23.80;62.90
25914;DHT22;13718;50.922;5.346;2023-06-01T14:53:04;24.00;64.20
25914;DHT22;13718;50.922;5.346;2023-06-01T14:55:30;23.90;64.40
25914;DHT22;13718;50.922;5.346;2023-06-01T14:57:56;23.90;65.10
25914;DHT22;13718;50.922;5.346;2023-06-01T15:00:22;24.00;65.10
25914;DHT22;13718;50.922;5.346;2023-06-01T15:02:47;24.00;65.20
25914;DHT22;13718;50.922;5.346;2023-06-01T15:05:13;23.90;66.40
25914;DHT22;13718;50.922;5.346;2023-06-01T15:07:39;23.70;66.40
25914;DHT22;13718;50.922;5.346;2023-06-01T15:10:05;23.60;66.40
25914;DHT22;13718;50.922;5.346;2023-06-01T15:12:31;23.50;66.90
25914;DHT22;13718;50.922;5.346;2023-06-01T15:14:56;23.50;65.70
25914;DHT22;13718;50.922;5.346;2023-06-01T15:17:22;23.40;66.10
25914;DHT22;13718;50.922;5.346;2023-06-01T15:19:48;23.30;66.30
25914;DHT22;13718;50.922;5.346;2023-06-01T15:22:14;23.30;67.30
25914;DHT22;13718;50.922;5.346;2023-06-01T15:24:40;23.30;67.10
25914;DHT22;13718;50.922;5.346;2023-06-01T15:27:08;23.30;67.30
25914;DHT22;13718;50.922;5.346;2023-06-01T15:29:34;23.20;67.70
25914;DHT22;13718;50.922;5.346;2023-06-01T15:32:03;23.20;67.10
25914;DHT22;13718;50.922;5.346;2023-06-01T15:34:29;23.20;67.70
25914;DHT22;13718;50.922;5.346;2023-06-01T15:36:55;23.20;67.00
25914;DHT22;13718;50.922;5.346;2023-06-01T15:39:21;23.20;67.60
25914;DHT22;13718;50.922;5.346;2023-06-01T15:41:47;23.10;68.10
25914;DHT22;13718;50.922;5.346;2023-06-01T15:44:12;23.10;68.70
25914;DHT22;13718;50.922;5.346;2023-06-01T15:46:38;23.10;69.00
25914;DHT22;13718;50.922;5.346;2023-06-01T15:49:04;23.00;69.10
25914;DHT22;13718;50.922;5.346;2023-06-01T15:51:29;23.10;68.80
25914;DHT22;13718;50.922;5.346;2023-06-01T15:53:55;23.10;68.90
25914;DHT22;13718;50.922;5.346;2023-06-01T15:56:21;23.10;69.60
25914;DHT22;13718;50.922;5.346;2023-06-01T15:58:51;23.20;69.70
25914;DHT22;13718;50.922;5.346;2023-06-01T16:01:17;23.10;69.20